sensor_id;sensor_type;location;lat;lon;timestamp;P1;durP1;ratioP1;P2;durP2;ratioP2
19038;SDS011;9652;49.014;12.052;2024-02-04T00:00:15;1.53;;;1.43;;
19038;SDS011;9652;49.014;12.052;2024-02-04T00:02:43;2.27;;;2.17;;
19038;SDS011;9652;49.014;12.052;2024-02-04T00:05:11;2.53;;;1.60;;
19038;SDS011;9652;49.014;12.052;2024-02-04T00:07:38;1.57;;;1.47;;
19038;SDS011;9652;49.014;12.052;2024-02-04T00:10:06;2.70;;;1.73;;
19038;SDS011;9652;49.014;12.052;2024-02-04T00:12:34;2.10;;;2.00;;
19038;SDS011;9652;49.014;12.052;2024-02-04T00:15:01;1.60;;;1.50;;
19038;SDS011;9652;49.014;12.052;2024-02-04T00:17:29;1.70;;;1.60;;
19038;SDS011;9652;49.014;12.052;2024-02-04T00:19:58;1.73;;;1.63;;
19038;SDS011;9652;49.014;12.052;2024-02-04T00:22:27;1.70;;;1.60;;
19038;SDS011;9652;49.014;12.052;2024-02-04T00:24:54;1.77;;;1.67;;
19038;SDS011;9652;49.014;12.052;2024-02-04T00:27:26;2.00;;;1.90;;
19038;SDS011;9652;49.014;12.052;2024-02-04T00:29:53;2.17;;;2.07;;
19038;SDS011;9652;49.014;12.052;2024-02-04T00:32:20;2.83;;;1.83;;
19038;SDS011;9652;49.014;12.052;2024-02-04T00:34:47;2.10;;;2.00;;
19038;SDS011;9652;49.014;12.052;2024-02-04T00:37:15;2.17;;;2.07;;
19038;SDS011;9652;49.014;12.052;2024-02-04T00:39:43;2.30;;;2.20;;
19038;SDS011;9652;49.014;12.052;2024-02-04T00:42:10;2.00;;;1.90;;
19038;SDS011;9652;49.014;12.052;2024-02-04T00:44:37;2.47;;;2.27;;
19038;SDS011;9652;49.014;12.052;2024-02-04T00:47:05;1.80;;;1.70;;
19038;SDS011;9652;49.014;12.052;2024-02-04T00:49:32;1.40;;;1.30;;
19038;SDS011;9652;49.014;12.052;2024-02-04T00:51:59;2.03;;;1.90;;
19038;SDS011;9652;49.014;12.052;2024-02-04T00:54:26;2.00;;;1.90;;
19038;SDS011;9652;49.014;12.052;2024-02-04T00:56:54;1.63;;;1.53;;
19038;SDS011;9652;49.014;12.052;2024-02-04T00:59:22;1.70;;;1.60;;
19038;SDS011;9652;49.014;12.052;2024-02-04T01:01:49;1.60;;;1.50;;
19038;SDS011;9652;49.014;12.052;2024-02-04T01:04:17;1.37;;;1.33;;
19038;SDS011;9652;49.014;12.052;2024-02-04T01:06:44;1.60;;;1.50;;
19038;SDS011;9652;49.014;12.052;2024-02-04T01:09:11;1.60;;;1.30;;
19038;SDS011;9652;49.014;12.052;2024-02-04T01:11:38;1.50;;;1.47;;
19038;SDS011;9652;49.014;12.052;2024-02-04T01:14:07;1.37;;;1.37;;
19038;SDS011;9652;49.014;12.052;2024-02-04T01:16:34;1.63;;;1.53;;
19038;SDS011;9652;49.014;12.052;2024-02-04T01:19:01;1.57;;;1.47;;
19038;SDS011;9652;49.014;12.052;2024-02-04T01:21:28;1.50;;;1.40;;
19038;SDS011;9652;49.014;12.052;2024-02-04T01:23:55;1.53;;;1.50;;
19038;SDS011;9652;49.014;12.052;2024-02-04T01:26:23;2.23;;;1.70;;
19038;SDS011;9652;49.014;12.052;2024-02-04T01:28:50;1.60;;;1.30;;
19038;SDS011;9652;49.014;12.052;2024-02-04T01:31:18;1.83;;;1.73;;
19038;SDS011;9652;49.014;12.052;2024-02-04T01:33:46;1.50;;;1.50;;
19038;SDS011;9652;49.014;12.052;2024-02-04T01:36:13;1.13;;;1.13;;
19038;SDS011;9652;49.014;12.052;2024-02-04T01:38:40;1.90;;;1.80;;
19038;SDS011;9652;49.014;12.052;2024-02-04T01:41:08;1.60;;;1.50;;
19038;SDS011;9652;49.014;12.052;2024-02-04T01:43:35;2.00;;;1.90;;
19038;SDS011;9652;49.014;12.052;2024-02-04T01:46:02;1.27;;;1.27;;
19038;SDS011;9652;49.014;12.052;2024-02-04T01:48:30;1.60;;;1.50;;
19038;SDS011;9652;49.014;12.052;2024-02-04T01:50:58;1.73;;;1.30;;
19038;SDS011;9652;49.014;12.052;2024-02-04T01:53:27;1.90;;;1.80;;
19038;SDS011;9652;49.014;12.052;2024-02-04T01:55:58;1.13;;;1.13;;
19038;SDS011;9652;49.014;12.052;2024-02-04T01:58:26;1.73;;;1.63;;
19038;SDS011;9652;49.014;12.052;2024-02-04T02:00:53;1.60;;;1.50;;
19038;SDS011;9652;49.014;12.052;2024-02-04T02:03:20;1.90;;;1.80;;
19038;SDS011;9652;49.014;12.052;2024-02-04T02:05:50;1.50;;;1.50;;
19038;SDS011;9652;49.014;12.052;2024-02-04T02:08:18;1.60;;;1.50;;
19038;SDS011;9652;49.014;12.052;2024-02-04T02:10:46;1.53;;;1.50;;
19038;SDS011;9652;49.014;12.052;2024-02-04T02:13:17;1.23;;;1.23;;
19038;SDS011;9652;49.014;12.052;2024-02-04T02:15:51;1.80;;;1.70;;
19038;SDS011;9652;49.014;12.052;2024-02-04T02:18:31;1.23;;;1.23;;
19038;SDS011;9652;49.014;12.052;2024-02-04T02:21:11;1.87;;;1.77;;
19038;SDS011;9652;49.014;12.052;2024-02-04T02:23:54;1.43;;;1.40;;
19038;SDS011;9652;49.014;12.052;2024-02-04T02:26:35;2.50;;;1.57;;
19038;SDS011;9652;49.014;12.052;2024-02-04T02:29:04;1.47;;;1.47;;
19038;SDS011;9652;49.014;12.052;2024-02-04T02:31:33;1.67;;;1.57;;
19038;SDS011;9652;49.014;12.052;2024-02-04T02:34:01;1.33;;;1.33;;
19038;SDS011;9652;49.014;12.052;2024-02-04T02:36:29;1.63;;;1.53;;
19038;SDS011;9652;49.014;12.052;2024-02-04T02:39:08;1.80;;;1.80;;
19038;SDS011;9652;49.014;12.052;2024-02-04T02:41:43;1.43;;;1.43;;
19038;SDS011;9652;49.014;12.052;2024-02-04T02:44:16;1.80;;;1.70;;
19038;SDS011;9652;49.014;12.052;2024-02-04T02:46:45;1.77;;;1.77;;
19038;SDS011;9652;49.014;12.052;2024-02-04T02:49:13;1.47;;;1.47;;
19038;SDS011;9652;49.014;12.052;2024-02-04T02:51:40;2.53;;;1.80;;
19038;SDS011;9652;49.014;12.052;2024-02-04T02:54:07;1.83;;;1.73;;
19038;SDS011;9652;49.014;12.052;2024-02-04T02:56:34;1.53;;;1.50;;
19038;SDS011;9652;49.014;12.052;2024-02-04T02:59:03;2.20;;;2.10;;
19038;SDS011;9652;49.014;12.052;2024-02-04T03:01:30;1.43;;;1.43;;
19038;SDS011;9652;49.014;12.052;2024-02-04T03:03:57;1.60;;;1.60;;
19038;SDS011;9652;49.014;12.052;2024-02-04T03:06:24;1.60;;;1.50;;
19038;SDS011;9652;49.014;12.052;2024-02-04T03:08:52;1.30;;;1.30;;
19038;SDS011;9652;49.014;12.052;2024-02-04T03:11:19;1.80;;;1.70;;
19038;SDS011;9652;49.014;12.052;2024-02-04T03:13:46;1.80;;;1.70;;
19038;SDS011;9652;49.014;12.052;2024-02-04T03:16:14;1.70;;;1.60;;
19038;SDS011;9652;49.014;12.052;2024-02-04T03:18:42;2.10;;;2.00;;
19038;SDS011;9652;49.014;12.052;2024-02-04T03:21:12;1.67;;;1.57;;
19038;SDS011;9652;49.014;12.052;2024-02-04T03:23:41;1.70;;;1.60;;
19038;SDS011;9652;49.014;12.052;2024-02-04T03:26:09;1.40;;;1.40;;
19038;SDS011;9652;49.014;12.052;2024-02-04T03:28:37;1.50;;;1.43;;
19038;SDS011;9652;49.014;12.052;2024-02-04T03:31:04;1.37;;;1.37;;
19038;SDS011;9652;49.014;12.052;2024-02-04T03:33:33;1.70;;;1.40;;
19038;SDS011;9652;49.014;12.052;2024-02-04T03:36:00;1.53;;;1.47;;
19038;SDS011;9652;49.014;12.052;2024-02-04T03:38:27;1.73;;;1.73;;
19038;SDS011;9652;49.014;12.052;2024-02-04T03:40:54;1.30;;;1.30;;
19038;SDS011;9652;49.014;12.052;2024-02-04T03:43:22;1.60;;;1.60;;
19038;SDS011;9652;49.014;12.052;2024-02-04T03:45:49;1.57;;;1.57;;
19038;SDS011;9652;49.014;12.052;2024-02-04T03:48:16;1.40;;;1.40;;
19038;SDS011;9652;49.014;12.052;2024-02-04T03:50:45;1.70;;;1.70;;
19038;SDS011;9652;49.014;12.052;2024-02-04T03:53:12;1.43;;;1.43;;
19038;SDS011;9652;49.014;12.052;2024-02-04T03:55:39;1.50;;;1.50;;
19038;SDS011;9652;49.014;12.052;2024-02-04T03:58:06;1.90;;;1.80;;
19038;SDS011;9652;49.014;12.052;2024-02-04T04:00:33;1.50;;;1.50;;
19038;SDS011;9652;49.014;12.052;2024-02-04T04:03:00;1.43;;;1.43;;
19038;SDS011;9652;49.014;12.052;2024-02-04T04:05:28;1.50;;;1.50;;
19038;SDS011;9652;49.014;12.052;2024-02-04T04:07:56;1.60;;;1.60;;
19038;SDS011;9652;49.014;12.052;2024-02-04T04:10:23;1.67;;;1.60;;
19038;SDS011;9652;49.014;12.052;2024-02-04T04:12:50;1.33;;;1.33;;
19038;SDS011;9652;49.014;12.052;2024-02-04T04:15:17;1.33;;;1.33;;
19038;SDS011;9652;49.014;12.052;2024-02-04T04:17:44;1.80;;;1.80;;
19038;SDS011;9652;49.014;12.052;2024-02-04T04:20:12;1.50;;;1.50;;
19038;SDS011;9652;49.014;12.052;2024-02-04T04:22:39;1.27;;;1.27;;
19038;SDS011;9652;49.014;12.052;2024-02-04T04:25:08;1.50;;;1.50;;
19038;SDS011;9652;49.014;12.052;2024-02-04T04:27:36;1.80;;;1.70;;
19038;SDS011;9652;49.014;12.052;2024-02-04T04:30:03;1.80;;;1.70;;
19038;SDS011;9652;49.014;12.052;2024-02-04T04:32:31;1.70;;;1.70;;
19038;SDS011;9652;49.014;12.052;2024-02-04T04:34:58;1.73;;;1.63;;
19038;SDS011;9652;49.014;12.052;2024-02-04T04:37:25;1.67;;;1.57;;
19038;SDS011;9652;49.014;12.052;2024-02-04T04:39:52;1.90;;;1.80;;
19038;SDS011;9652;49.014;12.052;2024-02-04T04:42:21;1.77;;;1.67;;
19038;SDS011;9652;49.014;12.052;2024-02-04T04:44:48;1.53;;;1.53;;
19038;SDS011;9652;49.014;12.052;2024-02-04T04:47:15;1.77;;;1.70;;
19038;SDS011;9652;49.014;12.052;2024-02-04T04:49:43;1.63;;;1.63;;
19038;SDS011;9652;49.014;12.052;2024-02-04T04:52:10;1.77;;;1.67;;
19038;SDS011;9652;49.014;12.052;2024-02-04T04:54:39;1.70;;;1.60;;
19038;SDS011;9652;49.014;12.052;2024-02-04T04:57:06;2.00;;;1.90;;
19038;SDS011;9652;49.014;12.052;2024-02-04T04:59:34;1.60;;;1.50;;
19038;SDS011;9652;49.014;12.052;2024-02-04T05:02:03;1.73;;;1.63;;
19038;SDS011;9652;49.014;12.052;2024-02-04T05:04:30;1.73;;;1.63;;
19038;SDS011;9652;49.014;12.052;2024-02-04T05:06:57;1.80;;;1.70;;
19038;SDS011;9652;49.014;12.052;2024-02-04T05:09:24;1.70;;;1.60;;
19038;SDS011;9652;49.014;12.052;2024-02-04T05:11:51;1.67;;;1.57;;
19038;SDS011;9652;49.014;12.052;2024-02-04T05:14:19;1.63;;;1.53;;
19038;SDS011;9652;49.014;12.052;2024-02-04T05:16:48;1.90;;;1.80;;
19038;SDS011;9652;49.014;12.052;2024-02-04T05:19:15;1.73;;;1.67;;
19038;SDS011;9652;49.014;12.052;2024-02-04T05:21:42;1.73;;;1.67;;
19038;SDS011;9652;49.014;12.052;2024-02-04T05:24:09;1.50;;;1.50;;
19038;SDS011;9652;49.014;12.052;2024-02-04T05:26:37;1.80;;;1.80;;
19038;SDS011;9652;49.014;12.052;2024-02-04T05:29:04;1.70;;;1.60;;
19038;SDS011;9652;49.014;12.052;2024-02-04T05:31:31;1.60;;;1.53;;
19038;SDS011;9652;49.014;12.052;2024-02-04T05:34:04;1.50;;;1.50;;
19038;SDS011;9652;49.014;12.052;2024-02-04T05:36:33;2.10;;;2.00;;
19038;SDS011;9652;49.014;12.052;2024-02-04T05:39:08;1.73;;;1.63;;
19038;SDS011;9652;49.014;12.052;2024-02-04T05:41:36;1.93;;;1.83;;
19038;SDS011;9652;49.014;12.052;2024-02-04T05:44:04;1.90;;;1.80;;
19038;SDS011;9652;49.014;12.052;2024-02-04T05:46:31;1.97;;;1.87;;
19038;SDS011;9652;49.014;12.052;2024-02-04T05:49:00;2.10;;;2.00;;
19038;SDS011;9652;49.014;12.052;2024-02-04T05:51:27;1.90;;;1.80;;
19038;SDS011;9652;49.014;12.052;2024-02-04T05:53:54;2.00;;;1.90;;
19038;SDS011;9652;49.014;12.052;2024-02-04T05:56:21;2.03;;;1.93;;
19038;SDS011;9652;49.014;12.052;2024-02-04T05:58:48;1.73;;;1.63;;
19038;SDS011;9652;49.014;12.052;2024-02-04T06:01:16;1.80;;;1.70;;
19038;SDS011;9652;49.014;12.052;2024-02-04T06:03:43;2.10;;;2.00;;
19038;SDS011;9652;49.014;12.052;2024-02-04T06:06:15;1.77;;;1.67;;
19038;SDS011;9652;49.014;12.052;2024-02-04T06:08:44;1.83;;;1.73;;
19038;SDS011;9652;49.014;12.052;2024-02-04T06:11:12;2.00;;;1.90;;
19038;SDS011;9652;49.014;12.052;2024-02-04T06:13:40;1.93;;;1.83;;
19038;SDS011;9652;49.014;12.052;2024-02-04T06:16:09;1.63;;;1.63;;
19038;SDS011;9652;49.014;12.052;2024-02-04T06:18:37;2.00;;;1.90;;
19038;SDS011;9652;49.014;12.052;2024-02-04T06:21:04;1.90;;;1.80;;
19038;SDS011;9652;49.014;12.052;2024-02-04T06:23:33;1.90;;;1.80;;
19038;SDS011;9652;49.014;12.052;2024-02-04T06:26:01;2.33;;;2.23;;
19038;SDS011;9652;49.014;12.052;2024-02-04T06:28:28;2.43;;;2.23;;
19038;SDS011;9652;49.014;12.052;2024-02-04T06:30:55;2.30;;;2.20;;
19038;SDS011;9652;49.014;12.052;2024-02-04T06:33:22;1.90;;;1.80;;
19038;SDS011;9652;49.014;12.052;2024-02-04T06:35:50;1.70;;;1.60;;
19038;SDS011;9652;49.014;12.052;2024-02-04T06:38:17;1.80;;;1.70;;
19038;SDS011;9652;49.014;12.052;2024-02-04T06:40:45;2.80;;;1.70;;
19038;SDS011;9652;49.014;12.052;2024-02-04T06:43:12;1.80;;;1.70;;
19038;SDS011;9652;49.014;12.052;2024-02-04T06:45:39;1.70;;;1.70;;
19038;SDS011;9652;49.014;12.052;2024-02-04T06:48:07;1.33;;;1.33;;
19038;SDS011;9652;49.014;12.052;2024-02-04T06:50:35;1.43;;;1.40;;
19038;SDS011;9652;49.014;12.052;2024-02-04T06:53:02;1.83;;;1.73;;
19038;SDS011;9652;49.014;12.052;2024-02-04T06:55:30;1.33;;;1.33;;
19038;SDS011;9652;49.014;12.052;2024-02-04T06:57:58;1.70;;;1.70;;
19038;SDS011;9652;49.014;12.052;2024-02-04T07:00:25;1.80;;;1.70;;
19038;SDS011;9652;49.014;12.052;2024-02-04T07:02:52;1.40;;;1.40;;
19038;SDS011;9652;49.014;12.052;2024-02-04T07:05:19;1.30;;;1.30;;
19038;SDS011;9652;49.014;12.052;2024-02-04T07:07:47;1.70;;;1.60;;
19038;SDS011;9652;49.014;12.052;2024-02-04T07:10:15;1.80;;;1.70;;
19038;SDS011;9652;49.014;12.052;2024-02-04T07:12:42;1.90;;;1.80;;
19038;SDS011;9652;49.014;12.052;2024-02-04T07:15:11;1.50;;;1.50;;
19038;SDS011;9652;49.014;12.052;2024-02-04T07:17:38;1.63;;;1.57;;
19038;SDS011;9652;49.014;12.052;2024-02-04T07:20:05;1.53;;;1.43;;
19038;SDS011;9652;49.014;12.052;2024-02-04T07:22:34;1.27;;;1.27;;
19038;SDS011;9652;49.014;12.052;2024-02-04T07:25:01;1.80;;;1.70;;
19038;SDS011;9652;49.014;12.052;2024-02-04T07:27:28;1.03;;;1.03;;
19038;SDS011;9652;49.014;12.052;2024-02-04T07:29:56;1.87;;;1.80;;
19038;SDS011;9652;49.014;12.052;2024-02-04T07:32:24;1.67;;;1.57;;
19038;SDS011;9652;49.014;12.052;2024-02-04T07:34:51;1.40;;;1.40;;
19038;SDS011;9652;49.014;12.052;2024-02-04T07:37:18;1.87;;;1.77;;
19038;SDS011;9652;49.014;12.052;2024-02-04T07:39:45;1.93;;;1.77;;
19038;SDS011;9652;49.014;12.052;2024-02-04T07:42:13;1.37;;;1.27;;
19038;SDS011;9652;49.014;12.052;2024-02-04T07:44:40;1.63;;;1.43;;
19038;SDS011;9652;49.014;12.052;2024-02-04T07:47:07;1.80;;;1.70;;
19038;SDS011;9652;49.014;12.052;2024-02-04T07:49:35;2.13;;;2.03;;
19038;SDS011;9652;49.014;12.052;2024-02-04T07:52:03;1.77;;;1.67;;
19038;SDS011;9652;49.014;12.052;2024-02-04T07:54:30;1.93;;;1.83;;
19038;SDS011;9652;49.014;12.052;2024-02-04T07:56:57;1.70;;;1.60;;
19038;SDS011;9652;49.014;12.052;2024-02-04T07:59:25;1.60;;;1.50;;
19038;SDS011;9652;49.014;12.052;2024-02-04T08:01:52;2.50;;;1.63;;
19038;SDS011;9652;49.014;12.052;2024-02-04T08:04:19;1.83;;;1.73;;
19038;SDS011;9652;49.014;12.052;2024-02-04T08:06:48;1.70;;;1.60;;
19038;SDS011;9652;49.014;12.052;2024-02-04T08:09:15;1.30;;;1.30;;
19038;SDS011;9652;49.014;12.052;2024-02-04T08:11:42;1.17;;;1.17;;
19038;SDS011;9652;49.014;12.052;2024-02-04T08:14:09;1.80;;;1.70;;
19038;SDS011;9652;49.014;12.052;2024-02-04T08:16:36;1.53;;;1.43;;
19038;SDS011;9652;49.014;12.052;2024-02-04T08:19:03;1.50;;;1.40;;
19038;SDS011;9652;49.014;12.052;2024-02-04T08:21:31;2.10;;;1.47;;
19038;SDS011;9652;49.014;12.052;2024-02-04T08:24:00;1.37;;;1.27;;
19038;SDS011;9652;49.014;12.052;2024-02-04T08:26:28;1.40;;;1.33;;
19038;SDS011;9652;49.014;12.052;2024-02-04T08:28:55;1.30;;;1.30;;
19038;SDS011;9652;49.014;12.052;2024-02-04T08:31:22;1.40;;;1.40;;
19038;SDS011;9652;49.014;12.052;2024-02-04T08:33:49;1.30;;;1.20;;
19038;SDS011;9652;49.014;12.052;2024-02-04T08:36:17;1.50;;;1.40;;
19038;SDS011;9652;49.014;12.052;2024-02-04T08:38:45;1.20;;;1.20;;
19038;SDS011;9652;49.014;12.052;2024-02-04T08:41:15;1.30;;;1.30;;
19038;SDS011;9652;49.014;12.052;2024-02-04T08:43:42;1.63;;;1.10;;
19038;SDS011;9652;49.014;12.052;2024-02-04T08:46:09;1.40;;;1.30;;
19038;SDS011;9652;49.014;12.052;2024-02-04T08:48:36;1.20;;;1.10;;
19038;SDS011;9652;49.014;12.052;2024-02-04T08:51:04;1.13;;;1.13;;
19038;SDS011;9652;49.014;12.052;2024-02-04T08:53:38;1.33;;;1.33;;
19038;SDS011;9652;49.014;12.052;2024-02-04T08:56:06;1.23;;;1.23;;
19038;SDS011;9652;49.014;12.052;2024-02-04T08:58:34;1.20;;;1.20;;
19038;SDS011;9652;49.014;12.052;2024-02-04T09:01:02;1.00;;;1.00;;
19038;SDS011;9652;49.014;12.052;2024-02-04T09:03:30;1.53;;;1.43;;
19038;SDS011;9652;49.014;12.052;2024-02-04T09:06:01;1.40;;;1.30;;
19038;SDS011;9652;49.014;12.052;2024-02-04T09:08:28;0.90;;;0.90;;
19038;SDS011;9652;49.014;12.052;2024-02-04T09:10:55;1.10;;;1.00;;
19038;SDS011;9652;49.014;12.052;2024-02-04T09:13:23;1.00;;;1.00;;
19038;SDS011;9652;49.014;12.052;2024-02-04T09:15:51;1.00;;;1.00;;
19038;SDS011;9652;49.014;12.052;2024-02-04T09:18:19;1.20;;;1.20;;
19038;SDS011;9652;49.014;12.052;2024-02-04T09:20:47;1.00;;;1.00;;
19038;SDS011;9652;49.014;12.052;2024-02-04T09:23:14;0.87;;;0.87;;
19038;SDS011;9652;49.014;12.052;2024-02-04T09:25:41;0.90;;;0.90;;
19038;SDS011;9652;49.014;12.052;2024-02-04T09:28:08;1.30;;;1.30;;
19038;SDS011;9652;49.014;12.052;2024-02-04T09:30:35;0.90;;;0.90;;
19038;SDS011;9652;49.014;12.052;2024-02-04T09:33:04;1.00;;;1.00;;
19038;SDS011;9652;49.014;12.052;2024-02-04T09:35:31;0.93;;;0.93;;
19038;SDS011;9652;49.014;12.052;2024-02-04T09:37:59;1.10;;;1.10;;
19038;SDS011;9652;49.014;12.052;2024-02-04T09:40:26;1.20;;;1.20;;
19038;SDS011;9652;49.014;12.052;2024-02-04T09:42:53;0.93;;;0.93;;
19038;SDS011;9652;49.014;12.052;2024-02-04T09:45:20;1.00;;;1.00;;
19038;SDS011;9652;49.014;12.052;2024-02-04T09:47:48;1.13;;;1.13;;
19038;SDS011;9652;49.014;12.052;2024-02-04T09:50:21;1.13;;;1.13;;
19038;SDS011;9652;49.014;12.052;2024-02-04T09:52:49;1.03;;;1.03;;
19038;SDS011;9652;49.014;12.052;2024-02-04T09:55:16;1.00;;;1.00;;
19038;SDS011;9652;49.014;12.052;2024-02-04T09:57:46;1.00;;;1.00;;
19038;SDS011;9652;49.014;12.052;2024-02-04T10:00:13;1.20;;;1.20;;
19038;SDS011;9652;49.014;12.052;2024-02-04T10:02:45;1.20;;;1.10;;
19038;SDS011;9652;49.014;12.052;2024-02-04T10:05:13;0.80;;;0.80;;
19038;SDS011;9652;49.014;12.052;2024-02-04T10:07:42;1.20;;;1.10;;
19038;SDS011;9652;49.014;12.052;2024-02-04T10:10:09;1.30;;;1.20;;
19038;SDS011;9652;49.014;12.052;2024-02-04T10:12:38;0.90;;;0.90;;
19038;SDS011;9652;49.014;12.052;2024-02-04T10:15:06;1.20;;;1.20;;
19038;SDS011;9652;49.014;12.052;2024-02-04T10:17:35;0.93;;;0.93;;
19038;SDS011;9652;49.014;12.052;2024-02-04T10:20:02;0.90;;;0.90;;
19038;SDS011;9652;49.014;12.052;2024-02-04T10:22:30;0.90;;;0.90;;
19038;SDS011;9652;49.014;12.052;2024-02-04T10:25:06;1.00;;;1.00;;
19038;SDS011;9652;49.014;12.052;2024-02-04T10:27:34;0.90;;;0.90;;
19038;SDS011;9652;49.014;12.052;2024-02-04T10:30:01;0.90;;;0.90;;
19038;SDS011;9652;49.014;12.052;2024-02-04T10:32:29;1.10;;;1.10;;
19038;SDS011;9652;49.014;12.052;2024-02-04T10:34:57;0.87;;;0.83;;
19038;SDS011;9652;49.014;12.052;2024-02-04T10:37:26;0.80;;;0.80;;
19038;SDS011;9652;49.014;12.052;2024-02-04T10:39:53;0.70;;;0.70;;
19038;SDS011;9652;49.014;12.052;2024-02-04T10:42:23;0.90;;;0.90;;
19038;SDS011;9652;49.014;12.052;2024-02-04T10:44:53;1.03;;;1.03;;
19038;SDS011;9652;49.014;12.052;2024-02-04T10:47:22;0.73;;;0.73;;
19038;SDS011;9652;49.014;12.052;2024-02-04T10:49:58;0.80;;;0.80;;
19038;SDS011;9652;49.014;12.052;2024-02-04T10:52:26;0.70;;;0.70;;
19038;SDS011;9652;49.014;12.052;2024-02-04T10:54:54;1.10;;;1.10;;
19038;SDS011;9652;49.014;12.052;2024-02-04T10:57:24;0.90;;;0.90;;
19038;SDS011;9652;49.014;12.052;2024-02-04T10:59:52;2.00;;;0.90;;
19038;SDS011;9652;49.014;12.052;2024-02-04T11:02:20;1.10;;;1.00;;
19038;SDS011;9652;49.014;12.052;2024-02-04T11:04:48;0.83;;;0.83;;
19038;SDS011;9652;49.014;12.052;2024-02-04T11:07:16;0.90;;;0.90;;
19038;SDS011;9652;49.014;12.052;2024-02-04T11:09:45;0.90;;;0.90;;
19038;SDS011;9652;49.014;12.052;2024-02-04T11:12:14;0.80;;;0.80;;
19038;SDS011;9652;49.014;12.052;2024-02-04T11:14:48;0.80;;;0.80;;
19038;SDS011;9652;49.014;12.052;2024-02-04T11:17:26;1.00;;;1.00;;
19038;SDS011;9652;49.014;12.052;2024-02-04T11:20:28;1.73;;;0.80;;
19038;SDS011;9652;49.014;12.052;2024-02-04T11:23:31;0.90;;;0.90;;
19038;SDS011;9652;49.014;12.052;2024-02-04T11:26:12;0.90;;;0.90;;
19038;SDS011;9652;49.014;12.052;2024-02-04T11:28:42;0.80;;;0.80;;
19038;SDS011;9652;49.014;12.052;2024-02-04T11:31:14;1.10;;;1.00;;
19038;SDS011;9652;49.014;12.052;2024-02-04T11:33:44;1.20;;;1.10;;
19038;SDS011;9652;49.014;12.052;2024-02-04T11:36:12;1.17;;;0.97;;
19038;SDS011;9652;49.014;12.052;2024-02-04T11:38:43;1.10;;;1.10;;
19038;SDS011;9652;49.014;12.052;2024-02-04T11:41:21;1.00;;;1.00;;
19038;SDS011;9652;49.014;12.052;2024-02-04T11:43:51;3.67;;;1.00;;
19038;SDS011;9652;49.014;12.052;2024-02-04T11:46:21;1.10;;;1.03;;
19038;SDS011;9652;49.014;12.052;2024-02-04T11:48:53;1.07;;;1.00;;
19038;SDS011;9652;49.014;12.052;2024-02-04T11:51:21;1.23;;;1.20;;
19038;SDS011;9652;49.014;12.052;2024-02-04T11:53:49;0.93;;;0.93;;
19038;SDS011;9652;49.014;12.052;2024-02-04T11:56:17;0.77;;;0.77;;
19038;SDS011;9652;49.014;12.052;2024-02-04T11:58:45;0.90;;;0.90;;
19038;SDS011;9652;49.014;12.052;2024-02-04T12:01:13;0.77;;;0.77;;
19038;SDS011;9652;49.014;12.052;2024-02-04T12:03:42;0.90;;;0.90;;
19038;SDS011;9652;49.014;12.052;2024-02-04T12:06:10;0.80;;;0.80;;
19038;SDS011;9652;49.014;12.052;2024-02-04T12:08:40;0.97;;;0.90;;
19038;SDS011;9652;49.014;12.052;2024-02-04T12:11:08;0.90;;;0.90;;
19038;SDS011;9652;49.014;12.052;2024-02-04T12:13:36;0.70;;;0.70;;
19038;SDS011;9652;49.014;12.052;2024-02-04T12:16:05;0.83;;;0.83;;
19038;SDS011;9652;49.014;12.052;2024-02-04T12:18:34;1.13;;;0.80;;
19038;SDS011;9652;49.014;12.052;2024-02-04T12:21:03;0.77;;;0.77;;
19038;SDS011;9652;49.014;12.052;2024-02-04T12:23:30;0.93;;;0.93;;
19038;SDS011;9652;49.014;12.052;2024-02-04T12:25:57;1.90;;;1.10;;
19038;SDS011;9652;49.014;12.052;2024-02-04T12:28:24;1.10;;;1.10;;
19038;SDS011;9652;49.014;12.052;2024-02-04T12:30:52;1.23;;;1.20;;
19038;SDS011;9652;49.014;12.052;2024-02-04T12:33:20;1.30;;;1.20;;
19038;SDS011;9652;49.014;12.052;2024-02-04T12:35:51;1.10;;;1.10;;
19038;SDS011;9652;49.014;12.052;2024-02-04T12:38:22;1.00;;;1.00;;
19038;SDS011;9652;49.014;12.052;2024-02-04T12:40:49;1.40;;;1.30;;
19038;SDS011;9652;49.014;12.052;2024-02-04T12:43:16;1.17;;;1.10;;
19038;SDS011;9652;49.014;12.052;2024-02-04T12:45:44;1.20;;;1.10;;
19038;SDS011;9652;49.014;12.052;2024-02-04T12:48:14;2.70;;;1.57;;
19038;SDS011;9652;49.014;12.052;2024-02-04T12:50:43;1.23;;;1.13;;
19038;SDS011;9652;49.014;12.052;2024-02-04T12:53:10;1.50;;;1.40;;
19038;SDS011;9652;49.014;12.052;2024-02-04T12:55:39;1.47;;;1.37;;
19038;SDS011;9652;49.014;12.052;2024-02-04T12:58:08;1.60;;;1.50;;
19038;SDS011;9652;49.014;12.052;2024-02-04T13:00:39;1.90;;;1.70;;
19038;SDS011;9652;49.014;12.052;2024-02-04T13:03:07;1.97;;;1.10;;
19038;SDS011;9652;49.014;12.052;2024-02-04T13:05:35;1.20;;;1.10;;
19038;SDS011;9652;49.014;12.052;2024-02-04T13:08:03;2.77;;;1.30;;
19038;SDS011;9652;49.014;12.052;2024-02-04T13:10:32;1.40;;;1.30;;
19038;SDS011;9652;49.014;12.052;2024-02-04T13:13:02;2.17;;;1.33;;
19038;SDS011;9652;49.014;12.052;2024-02-04T13:15:32;1.50;;;1.40;;
19038;SDS011;9652;49.014;12.052;2024-02-04T13:18:03;1.30;;;1.20;;
19038;SDS011;9652;49.014;12.052;2024-02-04T13:20:31;1.20;;;1.20;;
19038;SDS011;9652;49.014;12.052;2024-02-04T13:22:58;1.43;;;1.33;;
19038;SDS011;9652;49.014;12.052;2024-02-04T13:25:25;7.20;;;1.70;;
19038;SDS011;9652;49.014;12.052;2024-02-04T13:27:52;1.17;;;1.07;;
19038;SDS011;9652;49.014;12.052;2024-02-04T13:30:21;1.07;;;1.07;;
19038;SDS011;9652;49.014;12.052;2024-02-04T13:32:48;1.07;;;1.03;;
19038;SDS011;9652;49.014;12.052;2024-02-04T13:35:15;1.10;;;1.00;;
19038;SDS011;9652;49.014;12.052;2024-02-04T13:37:43;1.03;;;1.03;;
19038;SDS011;9652;49.014;12.052;2024-02-04T13:40:13;1.33;;;1.23;;
19038;SDS011;9652;49.014;12.052;2024-02-04T13:42:42;1.00;;;1.00;;
19038;SDS011;9652;49.014;12.052;2024-02-04T13:45:09;1.50;;;1.40;;
19038;SDS011;9652;49.014;12.052;2024-02-04T13:47:40;0.90;;;0.90;;
19038;SDS011;9652;49.014;12.052;2024-02-04T13:50:08;0.90;;;0.90;;
19038;SDS011;9652;49.014;12.052;2024-02-04T13:52:36;1.50;;;1.40;;
19038;SDS011;9652;49.014;12.052;2024-02-04T13:55:04;1.10;;;1.10;;
19038;SDS011;9652;49.014;12.052;2024-02-04T13:57:33;1.73;;;1.63;;
19038;SDS011;9652;49.014;12.052;2024-02-04T14:00:00;1.07;;;0.90;;
19038;SDS011;9652;49.014;12.052;2024-02-04T14:02:30;0.87;;;0.80;;
19038;SDS011;9652;49.014;12.052;2024-02-04T14:04:58;1.07;;;1.07;;
19038;SDS011;9652;49.014;12.052;2024-02-04T14:07:26;1.20;;;1.20;;
19038;SDS011;9652;49.014;12.052;2024-02-04T14:09:53;1.20;;;1.10;;
19038;SDS011;9652;49.014;12.052;2024-02-04T14:12:21;1.10;;;1.10;;
19038;SDS011;9652;49.014;12.052;2024-02-04T14:14:48;0.77;;;0.77;;
19038;SDS011;9652;49.014;12.052;2024-02-04T14:17:15;0.90;;;0.90;;
19038;SDS011;9652;49.014;12.052;2024-02-04T14:19:43;0.70;;;0.70;;
19038;SDS011;9652;49.014;12.052;2024-02-04T14:22:15;0.80;;;0.73;;
19038;SDS011;9652;49.014;12.052;2024-02-04T14:24:43;1.00;;;1.00;;
19038;SDS011;9652;49.014;12.052;2024-02-04T14:27:11;0.70;;;0.70;;
19038;SDS011;9652;49.014;12.052;2024-02-04T14:29:38;0.97;;;0.97;;
19038;SDS011;9652;49.014;12.052;2024-02-04T14:32:05;0.80;;;0.80;;
19038;SDS011;9652;49.014;12.052;2024-02-04T14:34:33;0.83;;;0.83;;
19038;SDS011;9652;49.014;12.052;2024-02-04T14:37:01;0.93;;;0.90;;
19038;SDS011;9652;49.014;12.052;2024-02-04T14:39:30;0.80;;;0.80;;
19038;SDS011;9652;49.014;12.052;2024-02-04T14:41:57;0.60;;;0.60;;
19038;SDS011;9652;49.014;12.052;2024-02-04T14:44:24;1.00;;;1.00;;
19038;SDS011;9652;49.014;12.052;2024-02-04T14:46:52;0.90;;;0.90;;
19038;SDS011;9652;49.014;12.052;2024-02-04T14:49:20;1.00;;;0.93;;
19038;SDS011;9652;49.014;12.052;2024-02-04T14:51:48;0.80;;;0.80;;
19038;SDS011;9652;49.014;12.052;2024-02-04T14:54:15;0.87;;;0.87;;